createdAt,value
2023-05-02T00:00:44.206Z,15.86
2023-05-02T00:01:44.242Z,15.76
2023-05-02T00:02:44.425Z,15.94
2023-05-02T00:03:44.354Z,15.93
2023-05-02T00:04:44.231Z,15.90
2023-05-02T00:05:44.202Z,15.78
2023-05-02T00:06:44.282Z,15.72
2023-05-02T00:07:44.202Z,15.71
2023-05-02T00:08:44.206Z,15.76
2023-05-02T00:09:44.203Z,15.75
2023-05-02T00:10:44.210Z,15.83
2023-05-02T00:11:44.204Z,15.82
2023-05-02T00:12:44.208Z,15.71
2023-05-02T00:13:44.208Z,15.60
2023-05-02T00:14:44.209Z,15.65
2023-05-02T00:15:44.207Z,15.64
2023-05-02T00:16:44.267Z,15.57
2023-05-02T00:17:44.268Z,15.57
2023-05-02T00:18:44.210Z,15.54
2023-05-02T00:19:44.217Z,15.43
2023-05-02T00:20:44.220Z,15.41
2023-05-02T00:21:44.210Z,15.35
2023-05-02T00:22:44.205Z,15.36
2023-05-02T00:23:44.206Z,15.41
2023-05-02T00:24:44.212Z,15.39
2023-05-02T00:25:44.207Z,15.34
2023-05-02T00:26:44.213Z,15.32
2023-05-02T00:27:44.211Z,15.41
2023-05-02T00:28:44.214Z,15.32
2023-05-02T00:29:44.222Z,15.27
2023-05-02T00:30:44.289Z,15.32
2023-05-02T00:31:44.279Z,15.21
2023-05-02T00:32:44.239Z,15.27
2023-05-02T00:33:44.230Z,15.32
2023-05-02T00:34:44.212Z,15.27
2023-05-02T00:35:44.216Z,15.21
2023-05-02T00:36:44.214Z,15.19
2023-05-02T00:37:44.210Z,15.25
2023-05-02T00:38:44.218Z,15.13
2023-05-02T00:39:44.210Z,15.27
2023-05-02T00:40:44.221Z,15.25
2023-05-02T00:41:44.222Z,15.25
2023-05-02T00:42:44.219Z,15.29
2023-05-02T00:43:44.215Z,15.11
2023-05-02T00:44:44.214Z,15.09
2023-05-02T00:45:44.213Z,15.14
2023-05-02T00:46:44.262Z,15.09
2023-05-02T00:47:44.253Z,15.14
2023-05-02T00:48:44.211Z,15.09
2023-05-02T00:49:44.242Z,15.07
2023-05-02T00:50:44.217Z,15.11
2023-05-02T00:51:44.221Z,15.10
2023-05-02T00:52:44.214Z,14.96
2023-05-02T00:53:44.217Z,15.02
2023-05-02T00:54:44.215Z,15.02
2023-05-02T00:55:44.225Z,15.02
2023-05-02T00:56:44.211Z,15.06
2023-05-02T00:57:44.225Z,15.10
2023-05-02T00:58:44.212Z,14.98
2023-05-02T00:59:44.220Z,14.98
2023-05-02T01:00:44.217Z,14.92
2023-05-02T01:01:44.266Z,14.83
2023-05-02T01:02:44.361Z,14.88
2023-05-02T01:03:44.391Z,14.80
2023-05-02T01:04:44.213Z,14.88
2023-05-02T01:05:44.237Z,14.86
2023-05-02T01:06:44.261Z,14.89
2023-05-02T01:07:44.215Z,14.81
2023-05-02T01:08:44.212Z,14.78
2023-05-02T01:09:44.214Z,14.75
2023-05-02T01:10:44.213Z,14.78
2023-05-02T01:11:44.216Z,14.70
2023-05-02T01:12:44.214Z,14.65
2023-05-02T01:13:44.217Z,14.52
2023-05-02T01:14:44.226Z,14.50
2023-05-02T01:15:44.250Z,14.45
2023-05-02T01:16:44.534Z,14.42
2023-05-02T01:17:44.256Z,14.27
2023-05-02T01:18:44.212Z,14.33
2023-05-02T01:19:44.219Z,14.14
2023-05-02T01:20:44.214Z,14.17
2023-05-02T01:21:44.250Z,14.12
2023-05-02T01:22:44.213Z,14.14
2023-05-02T01:23:44.218Z,14.09
2023-05-02T01:24:44.216Z,14.10
2023-05-02T01:25:44.225Z,13.99
2023-05-02T01:26:44.230Z,13.91
2023-05-02T01:27:44.219Z,13.92
2023-05-02T01:28:44.212Z,13.88
2023-05-02T01:29:44.220Z,13.87
2023-05-02T01:30:44.208Z,13.82
2023-05-02T01:31:44.306Z,13.82
2023-05-02T01:32:44.243Z,13.89
2023-05-02T01:33:44.213Z,13.91
2023-05-02T01:34:44.212Z,13.85
2023-05-02T01:35:44.216Z,13.84
2023-05-02T01:36:44.215Z,13.79
2023-05-02T01:37:44.238Z,13.82
2023-05-02T01:38:44.213Z,13.88
2023-05-02T01:39:44.218Z,13.78
2023-05-02T01:40:44.213Z,13.75
2023-05-02T01:41:44.215Z,13.78
2023-05-02T01:42:44.212Z,13.77
2023-05-02T01:43:44.224Z,13.75
2023-05-02T01:44:44.217Z,13.75
2023-05-02T01:45:44.218Z,13.67
2023-05-02T01:46:44.369Z,13.62
2023-05-02T01:47:44.244Z,13.62
2023-05-02T01:48:44.218Z,13.55
2023-05-02T01:49:44.223Z,13.63
2023-05-02T01:50:44.216Z,13.52
2023-05-02T01:51:44.224Z,13.52
2023-05-02T01:52:44.239Z,13.63
2023-05-02T01:53:44.237Z,13.60
2023-05-02T01:54:44.218Z,13.59
2023-05-02T01:55:44.222Z,13.63
2023-05-02T01:56:44.215Z,13.64
2023-05-02T01:57:44.225Z,13.77
2023-05-02T01:58:44.213Z,13.71
2023-05-02T01:59:44.224Z,13.73
2023-05-02T02:00:44.280Z,13.70
2023-05-02T02:01:44.250Z,13.79
2023-05-02T02:02:44.219Z,13.92
2023-05-02T02:03:44.253Z,13.99
2023-05-02T02:04:44.265Z,13.99
2023-05-02T02:05:44.266Z,14.04
2023-05-02T02:06:44.292Z,14.06
2023-05-02T02:07:44.248Z,14.07
2023-05-02T02:08:44.215Z,14.14
2023-05-02T02:09:44.244Z,14.18
2023-05-02T02:10:44.238Z,14.12
2023-05-02T02:11:44.220Z,14.12
2023-05-02T02:12:44.224Z,14.12
2023-05-02T02:13:44.212Z,14.37
2023-05-02T02:14:44.210Z,14.42
2023-05-02T02:15:44.220Z,14.47
2023-05-02T02:16:44.268Z,14.55
2023-05-02T02:17:44.284Z,14.73
2023-05-02T02:18:44.209Z,14.80
2023-05-02T02:19:44.272Z,14.91
2023-05-02T02:20:44.211Z,14.83
2023-05-02T02:21:44.214Z,14.98
2023-05-02T02:22:44.214Z,15.09
2023-05-02T02:23:44.217Z,15.16
2023-05-02T02:24:44.213Z,15.21
2023-05-02T02:25:44.236Z,15.39
2023-05-02T02:26:44.204Z,15.41
2023-05-02T02:27:44.206Z,15.38
2023-05-02T02:28:44.221Z,15.51
2023-05-02T02:29:44.222Z,15.51
2023-05-02T02:30:44.245Z,15.51
2023-05-02T02:31:44.213Z,15.53
2023-05-02T02:32:44.241Z,15.53
2023-05-02T02:33:44.211Z,15.60
2023-05-02T02:34:44.211Z,15.56
2023-05-02T02:35:44.220Z,15.62
2023-05-02T02:36:44.218Z,15.65
2023-05-02T02:37:44.215Z,15.56
2023-05-02T02:38:44.204Z,15.65
2023-05-02T02:39:44.206Z,15.72
2023-05-02T02:40:44.208Z,15.75
2023-05-02T02:41:44.235Z,15.75
2023-05-02T02:42:44.207Z,15.87
2023-05-02T02:43:44.213Z,15.78
2023-05-02T02:44:44.205Z,15.71
2023-05-02T02:45:44.212Z,15.67
2023-05-02T02:46:44.324Z,15.74
2023-05-02T02:47:44.268Z,15.72
2023-05-02T02:48:44.206Z,15.75
2023-05-02T02:49:44.216Z,15.69
2023-05-02T02:50:44.207Z,15.75
2023-05-02T02:51:44.211Z,15.71
2023-05-02T02:52:44.200Z,15.71
2023-05-02T02:53:44.201Z,15.72
2023-05-02T02:54:44.208Z,15.74
2023-05-02T02:55:44.206Z,15.72
2023-05-02T02:56:44.203Z,15.68
2023-05-02T02:57:44.226Z,15.67
2023-05-02T02:58:44.202Z,15.67
2023-05-02T02:59:44.205Z,15.64
2023-05-02T03:00:44.204Z,15.65
2023-05-02T03:01:44.244Z,15.54
2023-05-02T03:02:44.213Z,15.57
2023-05-02T03:03:44.251Z,15.59
2023-05-02T03:04:44.208Z,15.47
2023-05-02T03:05:44.204Z,15.46
2023-05-02T03:06:44.260Z,15.53
2023-05-02T03:07:44.207Z,15.39
2023-05-02T03:08:44.204Z,15.50
2023-05-02T03:09:44.199Z,15.43
2023-05-02T03:10:44.200Z,15.44
2023-05-02T03:11:44.199Z,15.43
2023-05-02T03:12:44.199Z,15.38
2023-05-02T03:13:44.220Z,15.34
2023-05-02T03:14:44.196Z,15.46
2023-05-02T03:15:44.249Z,15.32
2023-05-02T03:16:44.250Z,15.31
2023-05-02T03:17:44.302Z,15.38
2023-05-02T03:18:44.195Z,15.34
2023-05-02T03:19:44.207Z,15.23
2023-05-02T03:20:44.202Z,15.20
2023-05-02T03:21:44.205Z,15.31
2023-05-02T03:22:44.197Z,15.28
2023-05-02T03:23:44.208Z,15.23
2023-05-02T03:24:44.200Z,15.20
2023-05-02T03:25:44.208Z,15.25
2023-05-02T03:26:44.208Z,15.34
2023-05-02T03:27:44.213Z,15.19
2023-05-02T03:28:44.197Z,15.25
2023-05-02T03:29:44.219Z,15.27
2023-05-02T03:30:44.195Z,15.27
2023-05-02T03:31:44.239Z,15.27
2023-05-02T03:32:44.234Z,15.19
2023-05-02T03:33:44.201Z,15.20
2023-05-02T03:34:44.199Z,15.28
2023-05-02T03:35:44.200Z,15.16
2023-05-02T03:36:44.196Z,15.10
2023-05-02T03:37:44.205Z,15.14
2023-05-02T03:38:44.201Z,15.21
2023-05-02T03:39:44.196Z,15.13
2023-05-02T03:40:44.196Z,15.19
2023-05-02T03:41:44.202Z,15.20
2023-05-02T03:42:44.195Z,15.17
2023-05-02T03:43:44.197Z,15.17
2023-05-02T03:44:44.193Z,15.19
2023-05-02T03:45:44.224Z,15.21
2023-05-02T03:46:44.228Z,15.23
2023-05-02T03:47:44.230Z,15.23
2023-05-02T03:48:44.195Z,15.29
2023-05-02T03:49:44.202Z,15.13
2023-05-02T03:50:44.202Z,15.23
2023-05-02T03:51:44.195Z,15.35
2023-05-02T03:52:44.196Z,15.16
2023-05-02T03:53:44.195Z,15.23
2023-05-02T03:54:44.200Z,15.27
2023-05-02T03:55:44.202Z,15.21
2023-05-02T03:56:44.199Z,15.32
2023-05-02T03:57:44.195Z,15.20
2023-05-02T03:58:44.192Z,15.21
2023-05-02T03:59:44.198Z,15.17
2023-05-02T04:00:44.196Z,15.20
2023-05-02T04:01:44.267Z,15.21
2023-05-02T04:02:44.254Z,15.19
2023-05-02T04:03:44.397Z,15.31
2023-05-02T04:04:44.315Z,15.32
2023-05-02T04:05:44.201Z,15.29
2023-05-02T04:06:44.220Z,15.23
2023-05-02T04:07:44.201Z,15.20
2023-05-02T04:08:44.194Z,15.11
2023-05-02T04:09:44.207Z,15.19
2023-05-02T04:10:44.192Z,15.27
2023-05-02T04:11:44.191Z,15.25
2023-05-02T04:12:44.213Z,15.29
2023-05-02T04:13:44.202Z,15.28
2023-05-02T04:14:44.202Z,15.36
2023-05-02T04:15:44.195Z,15.32
2023-05-02T04:16:44.219Z,15.38
2023-05-02T04:17:44.235Z,15.38
2023-05-02T04:18:44.192Z,15.41
2023-05-02T04:19:44.193Z,15.19
2023-05-02T04:20:44.191Z,15.19
2023-05-02T04:21:44.193Z,15.21
2023-05-02T04:22:44.193Z,15.28
2023-05-02T04:23:44.190Z,15.28
2023-05-02T04:24:44.196Z,15.32
2023-05-02T04:25:44.194Z,15.44
2023-05-02T04:26:44.198Z,15.47
2023-05-02T04:27:44.194Z,15.54
2023-05-02T04:28:44.198Z,15.47
2023-05-02T04:29:44.192Z,15.47
2023-05-02T04:30:44.222Z,15.51
2023-05-02T04:31:44.188Z,15.51
2023-05-02T04:32:44.245Z,15.59
2023-05-02T04:33:44.214Z,15.62
2023-05-02T04:34:44.189Z,15.65
2023-05-02T04:35:44.202Z,15.62
2023-05-02T04:36:44.182Z,15.44
2023-05-02T04:37:44.213Z,15.56
2023-05-02T04:38:44.185Z,15.47
2023-05-02T04:39:44.189Z,15.54
2023-05-02T04:40:44.207Z,15.60
2023-05-02T04:41:44.197Z,15.64
2023-05-02T04:42:44.188Z,15.68
2023-05-02T04:43:44.186Z,15.67
2023-05-02T04:45:01.881Z,15.68
2023-05-02T04:46:01.890Z,15.60
2023-05-02T04:47:01.879Z,15.76
2023-05-02T04:48:01.906Z,15.76
2023-05-02T04:49:01.905Z,15.80
2023-05-02T04:50:02.206Z,15.86
2023-05-02T04:51:01.894Z,15.93
2023-05-02T04:52:01.880Z,15.90
2023-05-02T04:53:01.879Z,15.94
2023-05-02T04:54:01.877Z,15.93
2023-05-02T04:55:01.884Z,15.94
2023-05-02T04:56:01.885Z,15.97
2023-05-02T04:57:01.903Z,15.93
2023-05-02T04:58:01.885Z,16.07
2023-05-02T04:59:01.884Z,16.04
2023-05-02T05:00:02.048Z,16.02
2023-05-02T05:01:01.880Z,16.08
2023-05-02T05:02:01.921Z,16.23
2023-05-02T05:03:02.195Z,16.33
2023-05-02T05:04:02.042Z,16.28
2023-05-02T05:05:01.947Z,16.30
2023-05-02T05:06:01.903Z,16.34
2023-05-02T05:07:01.934Z,16.43
2023-05-02T05:08:01.890Z,16.43
2023-05-02T05:09:01.882Z,16.45
2023-05-02T05:10:02.203Z,16.63
2023-05-02T05:11:01.897Z,16.66
2023-05-02T05:12:01.904Z,16.68
2023-05-02T05:13:01.878Z,16.67
2023-05-02T05:14:01.883Z,16.68
2023-05-02T05:15:01.902Z,16.66
2023-05-02T05:16:01.917Z,16.67
2023-05-02T05:17:01.877Z,16.67
2023-05-02T05:18:01.995Z,16.61
2023-05-02T05:19:01.880Z,16.76
2023-05-02T05:20:02.294Z,16.75
2023-05-02T05:21:01.906Z,16.70
2023-05-02T05:22:01.883Z,16.81
2023-05-02T05:23:01.881Z,16.75
2023-05-02T05:24:01.888Z,16.76
2023-05-02T05:25:01.878Z,16.71
2023-05-02T05:26:01.894Z,16.76
2023-05-02T05:27:01.888Z,16.81
2023-05-02T05:28:01.884Z,16.79
2023-05-02T05:29:01.877Z,16.88
2023-05-02T05:30:02.080Z,16.73
2023-05-02T05:31:01.884Z,16.75
2023-05-02T05:32:01.960Z,16.67
2023-05-02T05:33:01.931Z,16.76
2023-05-02T05:34:01.894Z,16.85
2023-05-02T05:35:01.885Z,16.91
2023-05-02T05:36:01.903Z,16.82
2023-05-02T05:37:01.912Z,16.83
2023-05-02T05:38:01.897Z,16.88
2023-05-02T05:39:01.884Z,16.82
2023-05-02T05:40:02.351Z,16.78
2023-05-02T05:41:01.898Z,16.88
2023-05-02T05:42:01.891Z,16.86
2023-05-02T05:43:01.887Z,16.89
2023-05-02T05:44:01.883Z,16.86
2023-05-02T05:45:01.883Z,16.86
2023-05-02T05:46:01.893Z,16.96
2023-05-02T05:47:01.927Z,17.04
2023-05-02T05:48:01.948Z,17.11
2023-05-02T05:49:01.906Z,17.11
2023-05-02T05:50:02.225Z,17.14
2023-05-02T05:51:01.887Z,17.07
2023-05-02T05:52:01.920Z,17.21
2023-05-02T05:53:01.928Z,17.08
2023-05-02T05:54:01.891Z,17.12
2023-05-02T05:55:01.899Z,17.08
2023-05-02T05:56:01.896Z,17.07
2023-05-02T05:57:01.889Z,17.14
2023-05-02T05:58:01.908Z,17.31
2023-05-02T05:59:01.895Z,17.43
2023-05-02T06:00:02.400Z,17.48
2023-05-02T06:01:01.891Z,17.55
2023-05-02T06:02:01.891Z,17.52
2023-05-02T06:03:02.175Z,17.43
2023-05-02T06:04:01.957Z,17.44
2023-05-02T06:05:02.092Z,17.52
2023-05-02T06:06:01.980Z,17.46
2023-05-02T06:07:01.890Z,17.46
2023-05-02T06:08:01.893Z,17.54
2023-05-02T06:09:01.913Z,17.72
2023-05-02T06:10:02.250Z,17.78
2023-05-02T06:11:01.905Z,17.77
2023-05-02T06:12:01.900Z,17.84
2023-05-02T06:13:01.898Z,17.81
2023-05-02T06:14:01.900Z,17.71
2023-05-02T06:15:01.895Z,17.79
2023-05-02T06:16:01.960Z,17.72
2023-05-02T06:17:01.897Z,17.84
2023-05-02T06:18:01.948Z,17.87
2023-05-02T06:19:01.896Z,17.92
2023-05-02T06:20:02.302Z,17.81
2023-05-02T06:21:01.898Z,17.97
2023-05-02T06:22:01.905Z,18.03
2023-05-02T06:23:01.903Z,18.21
2023-05-02T06:24:01.911Z,18.48
2023-05-02T06:25:01.927Z,18.41
2023-05-02T06:26:01.921Z,18.45
2023-05-02T06:27:01.898Z,18.62
2023-05-02T06:28:01.907Z,18.69
2023-05-02T06:29:01.912Z,18.87
2023-05-02T06:30:02.400Z,18.99
2023-05-02T06:31:02.036Z,19.11
2023-05-02T06:32:02.067Z,19.08
2023-05-02T06:33:01.940Z,19.22
2023-05-02T06:34:01.905Z,19.07
2023-05-02T06:35:01.900Z,19.02
2023-05-02T06:36:02.398Z,18.85
2023-05-02T06:37:01.914Z,18.76
2023-05-02T06:38:01.907Z,18.73
2023-05-02T06:39:01.900Z,18.63
2023-05-02T06:40:02.206Z,18.63
2023-05-02T06:41:01.926Z,18.48
2023-05-02T06:42:01.906Z,18.54
2023-05-02T06:43:01.906Z,18.45
2023-05-02T06:44:01.907Z,18.48
2023-05-02T06:45:01.913Z,18.39
2023-05-02T06:46:01.913Z,18.54
2023-05-02T06:47:01.973Z,18.57
2023-05-02T06:48:01.945Z,18.75
2023-05-02T06:49:01.905Z,18.87
2023-05-02T06:50:02.341Z,18.73
2023-05-02T06:51:01.951Z,18.76
2023-05-02T06:52:01.933Z,18.69
2023-05-02T06:53:01.927Z,18.90
2023-05-02T06:54:01.912Z,18.88
2023-05-02T06:55:01.915Z,18.98
2023-05-02T06:56:01.913Z,19.11
2023-05-02T06:57:01.933Z,19.10
2023-05-02T06:58:01.914Z,19.08
2023-05-02T06:59:01.912Z,19.22
2023-05-02T07:00:02.379Z,19.21
2023-05-02T07:01:01.977Z,19.28
2023-05-02T07:02:04.426Z,19.33
2023-05-02T07:03:01.959Z,19.41
2023-05-02T07:04:01.964Z,19.56
2023-05-02T07:05:01.922Z,19.68
2023-05-02T07:06:01.958Z,19.83
2023-05-02T07:07:01.918Z,19.78
2023-05-02T07:08:01.922Z,19.96
2023-05-02T07:09:01.927Z,20.02
2023-05-02T07:10:02.319Z,20.05
2023-05-02T07:11:01.923Z,20.16
2023-05-02T07:12:03.063Z,20.13
2023-05-02T07:13:01.953Z,20.33
2023-05-02T07:14:01.930Z,20.41
2023-05-02T07:15:01.925Z,20.61
2023-05-02T07:16:01.958Z,20.91
2023-05-02T07:17:02.012Z,21.06
2023-05-02T07:18:01.956Z,21.22
2023-05-02T07:19:01.929Z,21.40
2023-05-02T07:20:02.157Z,21.65
2023-05-02T07:21:01.943Z,21.90
2023-05-02T07:22:01.983Z,22.05
2023-05-02T07:23:01.930Z,22.58
2023-05-02T07:24:01.944Z,22.91
2023-05-02T07:25:01.945Z,23.19
2023-05-02T07:26:02.831Z,23.61
2023-05-02T07:27:01.938Z,23.63
2023-05-02T07:28:01.977Z,23.48
2023-05-02T07:29:01.968Z,23.16
2023-05-02T07:30:02.427Z,23.12
2023-05-02T07:31:01.951Z,23.58
2023-05-02T07:32:02.048Z,23.42
2023-05-02T07:33:01.974Z,24.08
2023-05-02T07:34:01.962Z,24.22
2023-05-02T07:35:01.981Z,24.64
2023-05-02T07:36:01.955Z,25.20
2023-05-02T07:37:01.958Z,25.87
2023-05-02T07:38:01.961Z,26.29
2023-05-02T07:39:01.954Z,26.65
2023-05-02T07:40:02.339Z,26.81
2023-05-02T07:41:01.970Z,27.18
2023-05-02T07:42:01.969Z,27.41
2023-05-02T07:43:01.973Z,27.70
2023-05-02T07:44:01.975Z,27.84
2023-05-02T07:45:02.005Z,27.18
2023-05-02T07:46:02.015Z,27.32
2023-05-02T07:47:01.995Z,26.88
2023-05-02T07:48:02.006Z,26.33
2023-05-02T07:49:01.990Z,25.70
2023-05-02T07:50:02.205Z,25.32
2023-05-02T07:51:02.009Z,25.36
2023-05-02T07:52:02.003Z,25.46
2023-05-02T07:53:02.008Z,25.14
2023-05-02T07:54:02.012Z,25.15
2023-05-02T07:55:02.007Z,25.05
2023-05-02T07:56:02.019Z,24.50
2023-05-02T07:57:02.079Z,24.30
2023-05-02T07:58:02.027Z,23.91
2023-05-02T07:59:03.178Z,23.57
2023-05-02T08:00:02.614Z,23.42
2023-05-02T08:01:02.049Z,23.12
2023-05-02T08:02:02.038Z,22.88
2023-05-02T08:03:02.159Z,22.83
2023-05-02T08:04:02.241Z,22.77
2023-05-02T08:05:02.106Z,22.68
2023-05-02T08:06:02.125Z,22.61
2023-05-02T08:07:02.065Z,22.61
2023-05-02T08:08:02.084Z,22.21
2023-05-02T08:09:02.075Z,21.74
2023-05-02T08:10:02.463Z,21.50
2023-05-02T08:11:02.070Z,21.42
2023-05-02T08:12:02.080Z,21.32
2023-05-02T08:13:02.071Z,21.50
2023-05-02T08:14:02.077Z,21.34
2023-05-02T08:15:02.085Z,21.37
2023-05-02T08:16:02.104Z,21.37
2023-05-02T08:17:02.114Z,21.37
2023-05-02T08:18:02.173Z,21.32
2023-05-02T08:19:02.100Z,21.44
2023-05-02T08:20:02.429Z,21.35
2023-05-02T08:21:02.104Z,21.27
2023-05-02T08:22:02.101Z,21.09
2023-05-02T08:23:02.105Z,21.16
2023-05-02T08:24:02.114Z,21.24
2023-05-02T08:25:02.130Z,21.16
2023-05-02T08:26:02.117Z,21.09
2023-05-02T08:27:02.116Z,21.10
2023-05-02T08:28:02.128Z,21.06
2023-05-02T08:29:02.120Z,20.95
2023-05-02T08:30:02.161Z,20.91
2023-05-02T08:31:02.128Z,20.62
2023-05-02T08:32:02.198Z,20.69
2023-05-02T08:33:02.228Z,20.58
2023-05-02T08:34:02.134Z,20.57
2023-05-02T08:35:02.135Z,20.57
2023-05-02T08:36:02.146Z,20.76
2023-05-02T08:37:02.145Z,20.73
2023-05-02T08:38:02.147Z,20.42
2023-05-02T08:39:02.156Z,20.54
2023-05-02T08:40:02.496Z,20.55
2023-05-02T08:41:02.151Z,20.61
2023-05-02T08:42:02.158Z,20.57
2023-05-02T08:43:02.156Z,20.48
2023-05-02T08:44:02.166Z,20.42
2023-05-02T08:45:02.164Z,20.36
2023-05-02T08:46:02.162Z,20.29
2023-05-02T08:47:02.207Z,20.20
2023-05-02T08:48:02.226Z,20.23
2023-05-02T08:49:02.188Z,20.35
2023-05-02T08:50:02.583Z,20.35
2023-05-02T08:51:02.175Z,20.38
2023-05-02T08:52:02.180Z,20.02
2023-05-02T08:53:02.176Z,19.95
2023-05-02T08:54:02.192Z,20.03
2023-05-02T08:55:02.485Z,20.16
2023-05-02T08:56:02.188Z,20.06
2023-05-02T08:57:02.181Z,20.03
2023-05-02T08:58:02.189Z,20.06
2023-05-02T08:59:02.189Z,19.95
2023-05-02T09:00:02.188Z,19.95
2023-05-02T09:01:02.216Z,19.92
2023-05-02T09:02:02.189Z,19.81
2023-05-02T09:03:02.236Z,19.74
2023-05-02T09:04:02.233Z,19.86
2023-05-02T09:05:02.448Z,19.91
2023-05-02T09:06:02.213Z,19.88
2023-05-02T09:07:02.212Z,19.78
2023-05-02T09:08:02.216Z,19.69
2023-05-02T09:09:02.211Z,19.77
2023-05-02T09:10:02.214Z,19.76
2023-05-02T09:11:02.214Z,19.66
2023-05-02T09:12:02.534Z,19.55
2023-05-02T09:13:02.214Z,19.33
2023-05-02T09:14:02.214Z,19.51
2023-05-02T09:15:02.218Z,19.54
2023-05-02T09:16:02.253Z,19.56
2023-05-02T09:17:02.301Z,19.58
2023-05-02T09:18:02.264Z,19.65
2023-05-02T09:19:02.230Z,19.69
2023-05-02T09:20:02.230Z,19.78
2023-05-02T09:21:02.258Z,19.87
2023-05-02T09:22:02.231Z,20.08
2023-05-02T09:23:02.227Z,20.05
2023-05-02T09:24:02.226Z,20.17
2023-05-02T09:25:02.351Z,20.31
2023-05-02T09:26:02.241Z,20.29
2023-05-02T09:27:02.237Z,20.57
2023-05-02T09:28:02.239Z,20.72
2023-05-02T09:29:02.391Z,20.89
2023-05-02T09:30:02.236Z,20.82
2023-05-02T09:31:02.274Z,20.94
2023-05-02T09:32:02.284Z,20.87
2023-05-02T09:33:02.279Z,20.70
2023-05-02T09:34:02.245Z,20.91
2023-05-02T09:36:45.571Z,21.29
2023-05-02T09:37:45.560Z,21.50
2023-05-02T09:38:45.557Z,21.84
2023-05-02T09:39:45.574Z,22.55
2023-05-02T09:40:45.559Z,22.39
2023-05-02T09:41:45.592Z,22.20
2023-05-02T09:42:45.564Z,22.06
2023-05-02T09:43:45.578Z,22.00
2023-05-02T09:44:45.585Z,21.91
2023-05-02T09:45:45.633Z,21.88
2023-05-02T09:46:45.648Z,22.02
2023-05-02T09:47:45.625Z,21.98
2023-05-02T09:48:45.582Z,22.02
2023-05-02T09:49:46.257Z,22.12
2023-05-02T09:50:45.585Z,22.80
2023-05-02T09:51:45.594Z,23.02
2023-05-02T09:52:45.625Z,23.09
2023-05-02T09:53:45.599Z,23.01
2023-05-02T09:54:45.607Z,22.76
2023-05-02T09:55:45.601Z,22.57
2023-05-02T09:56:45.605Z,22.33
2023-05-02T09:57:45.606Z,22.00
2023-05-02T09:58:45.623Z,21.84
2023-05-02T09:59:45.613Z,21.65
2023-05-02T10:00:45.611Z,21.40
2023-05-02T10:01:45.651Z,21.29
2023-05-02T10:02:45.657Z,21.14
2023-05-02T10:03:45.726Z,21.13
2023-05-02T10:04:45.669Z,20.98
2023-05-02T10:05:45.642Z,20.89
2023-05-02T10:06:46.077Z,20.67
2023-05-02T10:07:45.637Z,20.42
2023-05-02T10:08:45.684Z,20.35
2023-05-02T10:09:45.642Z,20.28
2023-05-02T10:10:45.634Z,20.31
2023-05-02T10:11:45.648Z,20.14
2023-05-02T10:12:45.640Z,20.23
2023-05-02T10:13:45.652Z,20.29
2023-05-02T10:14:45.644Z,20.33
2023-05-02T10:15:45.678Z,20.36
2023-05-02T10:16:45.652Z,20.48
2023-05-02T10:17:45.677Z,20.48
2023-05-02T10:18:45.662Z,20.57
2023-05-02T10:19:45.657Z,20.43
2023-05-02T10:20:45.662Z,20.31
2023-05-02T10:21:45.666Z,20.41
2023-05-02T10:22:45.668Z,20.41
2023-05-02T10:23:45.678Z,20.48
2023-05-02T10:24:45.694Z,20.52
2023-05-02T10:25:45.681Z,20.67
2023-05-02T10:26:45.678Z,20.91
2023-05-02T10:27:45.693Z,20.85
2023-05-02T10:28:45.684Z,20.85
2023-05-02T10:29:45.682Z,20.85
2023-05-02T10:30:45.684Z,20.73
2023-05-02T10:31:45.740Z,20.79
2023-05-02T10:32:45.800Z,20.66
2023-05-02T10:33:45.692Z,20.74
2023-05-02T10:34:45.694Z,20.84
2023-05-02T10:35:45.724Z,20.95
2023-05-02T10:36:45.696Z,20.95
2023-05-02T10:37:45.709Z,20.98
2023-05-02T10:38:45.703Z,20.76
2023-05-02T10:39:45.702Z,20.87
2023-05-02T10:40:45.723Z,20.92
2023-05-02T10:41:45.705Z,20.95
2023-05-02T10:42:45.737Z,20.97
2023-05-02T10:43:45.710Z,20.87
2023-05-02T10:44:45.712Z,20.91
2023-05-02T10:45:45.714Z,20.84
2023-05-02T10:46:45.742Z,20.64
2023-05-02T10:47:45.742Z,20.58
2023-05-02T10:48:45.723Z,20.41
2023-05-02T10:49:45.721Z,20.42
2023-05-02T10:50:45.719Z,20.64
2023-05-02T10:51:45.730Z,20.38
2023-05-02T10:52:45.730Z,20.23
2023-05-02T10:53:45.727Z,20.21
2023-05-02T10:54:45.727Z,20.21
2023-05-02T10:55:45.728Z,20.29
2023-05-02T10:56:45.809Z,20.23
2023-05-02T10:57:45.735Z,20.32
2023-05-02T10:58:45.736Z,20.18
2023-05-02T10:59:45.745Z,20.06
2023-05-02T11:00:45.767Z,20.03
2023-05-02T11:01:45.803Z,20.03
2023-05-02T11:02:45.800Z,20.08
2023-05-02T11:03:45.747Z,20.18
2023-05-02T11:04:45.745Z,20.05
2023-05-02T11:05:45.758Z,20.16
2023-05-02T11:06:45.918Z,20.08
2023-05-02T11:07:45.758Z,19.92
2023-05-02T11:08:45.756Z,19.81
2023-05-02T11:09:45.755Z,19.74
2023-05-02T11:10:45.756Z,19.80
2023-05-02T11:11:45.777Z,19.86
2023-05-02T11:12:45.781Z,19.87
2023-05-02T11:13:45.788Z,19.94
2023-05-02T11:14:45.763Z,19.99
2023-05-02T11:15:45.772Z,20.18
2023-05-02T11:16:45.816Z,20.17
2023-05-02T11:17:45.791Z,20.20
2023-05-02T11:18:45.768Z,20.05
2023-05-02T11:19:45.783Z,20.05
2023-05-02T11:20:45.802Z,20.05
2023-05-02T11:21:45.788Z,20.02
2023-05-02T11:22:45.773Z,19.95
2023-05-02T11:23:45.786Z,20.03
2023-05-02T11:24:45.783Z,20.17
2023-05-02T11:25:45.799Z,20.01
2023-05-02T11:26:45.793Z,20.21
2023-05-02T11:27:45.794Z,20.26
2023-05-02T11:28:45.821Z,19.92
2023-05-02T11:29:45.811Z,19.69
2023-05-02T11:30:45.798Z,19.73
2023-05-02T11:31:45.852Z,19.74
2023-05-02T11:32:45.981Z,19.66
2023-05-02T11:33:45.808Z,19.66
2023-05-02T11:34:45.804Z,19.50
2023-05-02T11:35:45.806Z,19.54
2023-05-02T11:36:45.801Z,19.47
2023-05-02T11:37:45.805Z,19.28
2023-05-02T11:38:45.807Z,19.16
2023-05-02T11:39:45.828Z,19.11
2023-05-02T11:40:45.815Z,19.23
2023-05-02T11:41:45.817Z,19.29
2023-05-02T11:42:45.813Z,19.18
2023-05-02T11:43:45.821Z,19.19
2023-05-02T11:44:45.838Z,19.14
2023-05-02T11:45:45.866Z,19.22
2023-05-02T11:46:46.047Z,19.41
2023-05-02T11:47:45.878Z,19.55
2023-05-02T11:48:45.824Z,19.44
2023-05-02T11:49:45.836Z,19.65
2023-05-02T11:50:49.654Z,19.73
2023-05-02T11:51:45.841Z,20.01
2023-05-02T11:52:45.834Z,20.39
2023-05-02T11:53:45.837Z,20.57
2023-05-02T11:54:45.836Z,20.52
2023-05-02T11:55:45.842Z,20.41
2023-05-02T11:56:45.842Z,20.47
2023-05-02T11:57:45.847Z,20.47
2023-05-02T11:58:45.843Z,20.36
2023-05-02T11:59:45.850Z,20.41
2023-05-02T12:00:45.880Z,20.58
2023-05-02T12:01:45.857Z,20.61
2023-05-02T12:02:45.996Z,20.73
2023-05-02T12:03:46.256Z,20.89
2023-05-02T12:04:45.869Z,20.92
2023-05-02T12:05:45.948Z,21.17
2023-05-02T12:06:45.907Z,21.22
2023-05-02T12:07:45.887Z,21.32
2023-05-02T12:08:45.879Z,21.50
2023-05-02T12:09:45.882Z,21.64
2023-05-02T12:10:45.875Z,21.72
2023-05-02T12:11:45.885Z,21.77
2023-05-02T12:12:45.881Z,21.79
2023-05-02T12:13:45.889Z,21.88
2023-05-02T12:14:45.897Z,21.96
2023-05-02T12:15:45.926Z,21.96
2023-05-02T12:16:46.187Z,21.91
2023-05-02T12:17:45.955Z,21.94
2023-05-02T12:18:45.893Z,21.99
2023-05-02T12:19:45.907Z,21.79
2023-05-02T12:20:45.908Z,21.50
2023-05-02T12:21:45.920Z,21.52
2023-05-02T12:22:45.913Z,21.43
2023-05-02T12:23:45.919Z,21.32
2023-05-02T12:24:45.915Z,21.25
2023-05-02T12:25:45.920Z,21.17
2023-05-02T12:26:45.973Z,21.04
2023-05-02T12:27:45.925Z,21.31
2023-05-02T12:28:45.924Z,21.27
2023-05-02T12:29:45.954Z,21.17
2023-05-02T12:30:45.932Z,21.07
2023-05-02T12:31:45.987Z,20.92
2023-05-02T12:32:45.993Z,20.87
2023-05-02T12:33:45.949Z,20.88
2023-05-02T12:34:45.946Z,20.70
2023-05-02T12:35:45.954Z,20.73
2023-05-02T12:36:45.954Z,20.79
2023-05-02T12:37:47.316Z,20.88
2023-05-02T12:38:45.954Z,20.94
2023-05-02T12:39:45.982Z,20.98
2023-05-02T12:40:45.959Z,20.92
2023-05-02T12:41:46.022Z,20.89
2023-05-02T12:42:45.970Z,20.97
2023-05-02T12:43:45.981Z,20.85
2023-05-02T12:44:45.988Z,20.70
2023-05-02T12:45:45.988Z,20.57
2023-05-02T12:46:46.020Z,20.70
2023-05-02T12:47:46.017Z,20.74
2023-05-02T12:48:46.846Z,20.80
2023-05-02T12:49:45.996Z,20.97
2023-05-02T12:50:45.999Z,21.09
2023-05-02T12:51:46.015Z,21.04
2023-05-02T12:52:46.023Z,21.25
2023-05-02T12:53:46.006Z,21.77
2023-05-02T12:54:46.613Z,22.25